Time;durP1;ratioP1;P1;durP2;ratioP2;P2;SDS_P1;SDS_P2;PMS_P1;PMS_P2;Temp;Humidity;BMP_temperature;BMP_pressure;BME280_temperature;BME280_humidity;BME280_pressure;Samples;Min_cycle;Max_cycle;Signal;HPM_P1;HPM_P2
2022/06/18 00:01:45;;;;;;;10.88;6.45;;;;;;;22.30;58.70;101682.00;5028879;28;20029;-71
2022/06/18 00:04:16;;;;;;;10.57;6.22;;;;;;;22.31;58.78;101678.13;5037149;28;20037;-70
2022/06/18 00:07:01;;;;;;;14.93;7.07;;;;;;;22.30;58.85;101679.22;5037218;28;20536;-70
2022/06/18 00:09:34;;;;;;;10.43;6.70;;;;;;;22.28;59.00;101679.50;5026398;28;20040;-71
2022/06/18 00:15:13;;;;;;;9.05;6.40;;;;;;;22.17;60.11;101678.75;5047388;28;20055;-71
2022/06/18 00:17:38;;;;;;;12.23;6.50;;;;;;;22.15;58.99;101675.41;5033703;28;20660;-71
2022/06/18 00:20:04;;;;;;;9.45;6.43;;;;;;;22.07;59.48;101675.97;5036100;28;20021;-70
2022/06/18 00:22:30;;;;;;;12.38;6.80;;;;;;;21.99;60.13;101676.56;5028022;28;20125;-70
2022/06/18 00:24:55;;;;;;;12.65;6.80;;;;;;;21.94;59.76;101679.38;5046739;28;20071;-70
2022/06/18 00:27:21;;;;;;;9.82;6.43;;;;;;;21.85;60.48;101670.78;5031359;28;20037;-70
2022/06/18 00:29:49;;;;;;;12.70;6.70;;;;;;;21.85;61.28;101675.53;5026226;28;20041;-70
2022/06/18 00:32:15;;;;;;;13.63;6.60;;;;;;;21.77;60.77;101672.19;5029813;28;20056;-70
2022/06/18 00:34:40;;;;;;;11.63;6.43;;;;;;;21.72;61.69;101676.97;5045318;28;20100;-70
2022/06/18 00:37:06;;;;;;;16.30;6.88;;;;;;;21.71;61.03;101667.75;5032936;28;20029;-71
2022/06/18 00:39:32;;;;;;;10.38;7.20;;;;;;;21.73;61.41;101673.03;5026250;28;20026;-70
2022/06/18 00:42:05;;;;;;;10.13;6.75;;;;;;;21.69;61.94;101669.13;5007295;28;20022;-70
2022/06/18 00:44:37;;;;;;;9.35;6.50;;;;;;;21.61;64.17;101675.34;5012690;28;20025;-70
2022/06/18 00:47:24;;;;;;;11.63;7.20;;;;;;;21.56;61.90;101673.38;5029308;28;20124;-71
2022/06/18 00:49:58;;;;;;;12.50;7.10;;;;;;;21.43;63.48;101669.22;5036124;28;20424;-71
2022/06/18 00:52:38;;;;;;;10.75;7.10;;;;;;;21.35;63.87;101667.03;5029809;28;20037;-71
2022/06/18 00:55:19;;;;;;;10.52;7.28;;;;;;;21.27;63.39;101663.94;5035857;28;20037;-71
2022/06/18 00:58:12;;;;;;;12.27;7.80;;;;;;;21.25;62.91;101669.81;5018343;28;20041;-71
2022/06/18 01:00:40;;;;;;;11.73;8.00;;;;;;;21.28;62.69;101666.44;4974804;28;20488;-71
2022/06/18 01:03:20;;;;;;;11.35;7.75;;;;;;;21.19;64.89;101668.97;5027873;28;20033;-70
2022/06/18 01:05:45;;;;;;;11.20;7.40;;;;;;;21.20;63.71;101664.22;5042189;28;20060;-71
2022/06/18 01:08:16;;;;;;;11.70;8.00;;;;;;;21.12;65.39;101668.41;5025780;28;20414;-71
2022/06/18 01:10:46;;;;;;;13.43;7.93;;;;;;;21.04;65.90;101663.41;5012190;28;20052;-71
2022/06/18 01:13:17;;;;;;;9.95;7.75;;;;;;;20.99;65.90;101664.25;5014576;28;20036;-71
2022/06/18 01:15:44;;;;;;;10.57;7.80;;;;;;;20.95;65.17;101659.50;5046347;28;20047;-71
2022/06/18 01:18:11;;;;;;;12.02;8.50;;;;;;;20.87;65.88;101660.06;5039403;28;20080;-71
2022/06/18 01:20:56;;;;;;;13.35;8.45;;;;;;;20.85;65.37;101651.97;5024793;28;20037;-71
2022/06/18 01:23:57;;;;;;;13.43;8.65;;;;;;;20.92;64.15;101648.91;5045750;28;20037;-68
2022/06/18 01:26:22;;;;;;;15.02;8.90;;;;;;;20.87;65.06;101649.72;4999359;28;20043;-71
2022/06/18 01:28:48;;;;;;;13.23;9.55;;;;;;;20.81;67.07;101650.03;5044700;28;20104;-71
2022/06/18 01:31:13;;;;;;;14.35;9.52;;;;;;;20.89;65.51;101641.09;5044829;28;20028;-72
2022/06/18 01:33:39;;;;;;;15.20;9.05;;;;;;;20.90;64.85;101646.38;5025066;28;20018;-71
2022/06/18 01:36:08;;;;;;;12.30;8.80;;;;;;;20.84;67.43;101653.09;5024625;28;20025;-71
2022/06/18 01:38:38;;;;;;;13.10;9.20;;;;;;;20.82;65.77;101649.72;5024062;28;20013;-71
2022/06/18 01:44:07;;;;;;;15.85;9.68;;;;;;;20.80;66.46;101651.16;5024694;28;20044;-70
2022/06/18 01:46:35;;;;;;;13.52;9.43;;;;;;;20.66;67.82;101643.31;5024574;28;20033;-71
2022/06/18 01:49:04;;;;;;;16.38;10.00;;;;;;;20.61;68.48;101648.91;5023900;28;20422;-71
2022/06/18 01:51:34;;;;;;;15.63;9.80;;;;;;;20.53;67.77;101641.09;5024651;28;20112;-71
2022/06/18 01:54:04;;;;;;;16.10;10.88;;;;;;;20.56;66.76;101636.91;5021575;28;20025;-71
2022/06/18 01:56:37;;;;;;;16.40;10.75;;;;;;;20.57;67.40;101644.16;5045667;28;20114;-71
2022/06/18 01:59:07;;;;;;;14.50;10.75;;;;;;;20.42;68.57;101644.94;5032704;28;20018;-70
2022/06/18 02:01:38;;;;;;;17.15;11.43;;;;;;;20.42;68.76;101636.56;5016603;28;20034;-71
2022/06/18 02:04:04;;;;;;;15.57;11.60;;;;;;;20.43;68.44;101638.28;5027627;28;20029;-71
2022/06/18 02:06:32;;;;;;;12.93;11.30;;;;;;;20.40;69.99;101636.84;5011246;28;20560;-71
2022/06/18 02:09:01;;;;;;;18.88;11.35;;;;;;;20.36;68.45;101637.69;5038903;28;20079;-72
2022/06/18 02:11:26;;;;;;;14.60;12.18;;;;;;;20.35;68.71;101630.44;5025147;28;20108;-71
2022/06/18 02:14:01;;;;;;;18.63;12.10;;;;;;;20.29;70.06;101637.13;5027561;28;20113;-71
2022/06/18 02:16:30;;;;;;;16.25;12.77;;;;;;;20.26;68.81;101627.34;5044205;28;20468;-71
2022/06/18 02:18:59;;;;;;;17.48;12.82;;;;;;;20.24;69.14;101635.16;5035297;28;20034;-70
2022/06/18 02:21:24;;;;;;;17.90;13.15;;;;;;;20.20;69.14;101625.66;5018208;28;20033;-71
2022/06/18 02:23:54;;;;;;;17.60;13.10;;;;;;;20.21;68.58;101632.91;5028381;28;20025;-71
2022/06/18 02:26:22;;;;;;;17.42;12.75;;;;;;;20.18;69.41;101627.91;5044170;28;20033;-71
2022/06/18 02:28:50;;;;;;;19.25;13.70;;;;;;;20.15;69.43;101625.66;5037646;28;20052;-71
2022/06/18 02:31:20;;;;;;;19.33;13.05;;;;;;;20.20;69.01;101625.66;5024242;28;20088;-71
2022/06/18 02:34:00;;;;;;;18.42;13.90;;;;;;;20.18;68.54;101623.16;5032192;28;20029;-71
2022/06/18 02:36:31;;;;;;;20.13;14.10;;;;;;;20.18;68.91;101620.38;5044765;28;20024;-71
2022/06/18 02:39:24;;;;;;;23.23;14.98;;;;;;;20.19;68.63;101622.03;5042640;28;20029;-70
2022/06/18 02:41:58;;;;;;;20.30;13.70;;;;;;;20.19;68.26;101622.03;5024342;28;20037;-71
2022/06/18 02:44:23;;;;;;;19.67;14.90;;;;;;;20.14;68.92;101632.34;5038820;28;20091;-72
2022/06/18 02:46:48;;;;;;;18.73;14.00;;;;;;;20.11;70.23;101625.38;5043570;28;20033;-71
2022/06/18 02:49:14;;;;;;;22.88;15.40;;;;;;;20.12;69.42;101624.28;5044443;28;20537;-72
2022/06/18 02:51:40;;;;;;;21.45;14.95;;;;;;;20.18;68.47;101623.16;5044847;28;20444;-71
2022/06/18 02:54:06;;;;;;;20.83;14.52;;;;;;;20.10;69.53;101629.28;5025721;28;20025;-72
2022/06/18 02:56:31;;;;;;;20.13;15.55;;;;;;;20.12;69.27;101617.84;5035634;28;20037;-71
2022/06/18 02:58:57;;;;;;;21.63;15.02;;;;;;;20.08;69.41;101625.09;5046576;28;20029;-72
2022/06/18 03:01:25;;;;;;;19.95;15.35;;;;;;;20.11;69.28;101619.78;5046630;28;20056;-71
2022/06/18 03:03:56;;;;;;;21.88;16.08;;;;;;;20.10;69.01;101634.84;5048113;28;20024;-71
2022/06/18 03:06:23;;;;;;;19.75;15.50;;;;;;;20.13;69.40;101630.69;5029882;28;20073;-68
2022/06/18 03:08:49;;;;;;;;;;;;;;;20.20;67.19;101629.28;5029097;28;20025;-72
2022/06/18 03:14:05;;;;;;;21.30;16.10;;;;;;;20.09;68.46;101632.34;5030070;28;20575;-71
2022/06/18 03:16:31;;;;;;;24.40;16.08;;;;;;;20.04;69.79;101627.59;5037415;28;20030;-71
2022/06/18 03:18:58;;;;;;;23.77;17.35;;;;;;;20.08;69.36;101630.69;5027478;28;20480;-71
2022/06/18 03:21:42;;;;;;;22.00;16.73;;;;;;;20.13;68.25;101627.91;5028151;28;20065;-71
2022/06/18 03:24:08;;;;;;;24.63;15.60;;;;;;;20.02;69.96;101632.63;5026879;28;20036;-71
2022/06/18 03:26:35;;;;;;;25.00;17.23;;;;;;;20.05;68.13;101632.06;5026929;28;20032;-71
2022/06/18 03:29:01;;;;;;;24.33;16.05;;;;;;;20.02;69.54;101634.53;5021110;28;20109;-71
2022/06/18 03:31:26;;;;;;;27.13;16.80;;;;;;;20.09;67.82;101644.34;5027410;28;20529;-71
2022/06/18 03:33:51;;;;;;;25.40;16.55;;;;;;;20.05;69.28;101639.59;5027318;28;20024;-67
2022/06/18 03:36:18;;;;;;;26.45;17.63;;;;;;;20.04;68.25;101643.50;5030805;28;20108;-71
2022/06/18 03:38:44;;;;;;;29.08;16.95;;;;;;;20.01;69.83;101646.81;5047540;28;20033;-71
2022/06/18 03:41:11;;;;;;;23.95;15.98;;;;;;;20.03;67.93;101642.66;5047149;28;20039;-71
2022/06/18 03:43:36;;;;;;;25.65;17.42;;;;;;;20.04;69.49;101646.28;5047540;28;20052;-71
2022/06/18 03:46:07;;;;;;;128.63;24.05;;;;;;;20.15;68.74;101642.41;5031730;28;20454;-71
2022/06/18 03:48:46;;;;;;;24.83;17.33;;;;;;;20.07;69.05;101645.72;5027264;28;20136;-71
2022/06/18 03:51:13;;;;;;;23.77;17.05;;;;;;;20.01;70.32;101639.28;5022939;28;20041;-71
2022/06/18 03:53:40;;;;;;;25.75;17.77;;;;;;;19.97;68.56;101640.94;5027253;28;20576;-71
2022/06/18 03:56:06;;;;;;;27.15;18.50;;;;;;;20.02;67.41;101642.91;5027448;28;20045;-71
2022/06/18 03:58:31;;;;;;;26.05;18.15;;;;;;;20.00;68.83;101637.63;5036430;28;20037;-71
2022/06/18 04:00:57;;;;;;;27.33;17.08;;;;;;;19.99;69.77;101633.16;5043719;28;20029;-72
2022/06/18 04:03:22;;;;;;;25.90;17.63;;;;;;;20.01;69.57;101633.72;5042003;28;20139;-71
2022/06/18 04:05:48;;;;;;;27.48;18.55;;;;;;;19.95;68.93;101632.84;5031770;28;20080;-71
2022/06/18 04:08:15;;;;;;;24.58;18.42;;;;;;;19.96;68.18;101626.16;5026258;28;20370;-71
2022/06/18 04:10:40;;;;;;;32.22;19.38;;;;;;;19.92;69.60;101633.44;5025376;28;20014;-71
2022/06/18 04:13:06;;;;;;;29.00;19.35;;;;;;;19.94;68.85;101633.97;5032141;28;20511;-71
2022/06/18 04:15:32;;;;;;;31.33;19.52;;;;;;;19.93;68.84;101625.91;5039515;28;20037;-71
2022/06/18 04:17:58;;;;;;;28.73;19.00;;;;;;;19.93;68.44;101623.13;5046586;28;20437;-71
2022/06/18 04:20:27;;;;;;;29.42;20.13;;;;;;;19.92;69.32;101627.84;5036509;28;20021;-71
2022/06/18 04:22:53;;;;;;;30.35;21.08;;;;;;;19.96;68.06;101623.38;5025555;28;20116;-72
2022/06/18 04:25:19;;;;;;;27.88;19.42;;;;;;;19.99;69.16;101627.59;5037744;28;20083;-71
2022/06/18 04:27:44;;;;;;;24.60;19.25;;;;;;;20.02;68.72;101621.47;5047200;28;20064;-71
2022/06/18 04:30:11;;;;;;;28.23;19.50;;;;;;;20.01;69.66;101621.72;5037721;28;20095;-71
2022/06/18 04:32:37;;;;;;;30.52;21.30;;;;;;;20.04;68.33;101613.66;5026125;28;20081;-72
2022/06/18 04:35:05;;;;;;;30.00;19.38;;;;;;;20.06;69.40;101622.56;5025187;28;20037;-72
2022/06/18 04:37:30;;;;;;;27.70;19.52;;;;;;;20.05;70.39;101620.91;5028288;28;20182;-71
2022/06/18 04:39:55;;;;;;;30.48;20.15;;;;;;;20.03;71.32;101620.34;5028056;28;20120;-72
2022/06/18 04:42:21;;;;;;;32.50;20.98;;;;;;;20.07;68.75;101621.47;5030694;28;20030;-71
2022/06/18 04:44:46;;;;;;;34.10;22.25;;;;;;;20.05;69.87;101622.84;5039827;28;20064;-71
2022/06/18 04:47:11;;;;;;;27.75;21.45;;;;;;;20.11;69.70;101630.09;5044972;28;20036;-71
2022/06/18 04:49:36;;;;;;;32.72;22.60;;;;;;;20.12;70.23;101629.00;5046118;28;20023;-71
2022/06/18 04:52:02;;;;;;;30.48;21.65;;;;;;;20.19;69.68;101632.38;5034895;28;20036;-71
2022/06/18 04:54:27;;;;;;;33.83;21.73;;;;;;;20.21;71.45;101632.91;5046344;28;20030;-72
2022/06/18 04:56:52;;;;;;;29.85;20.95;;;;;;;20.22;71.07;101634.59;5046047;28;20122;-71
2022/06/18 04:59:18;;;;;;;31.42;22.77;;;;;;;20.24;70.09;101635.16;5041157;28;20035;-72
2022/06/18 05:01:43;;;;;;;32.08;21.65;;;;;;;20.26;69.50;101635.72;5034736;28;20025;-70
2022/06/18 05:04:08;;;;;;;31.58;22.33;;;;;;;20.28;72.10;101632.69;5042534;28;20473;-71
2022/06/18 05:06:34;;;;;;;28.92;21.67;;;;;;;20.31;70.05;101630.16;5045961;28;20070;-71
2022/06/18 05:08:59;;;;;;;35.30;22.67;;;;;;;20.32;71.31;101631.81;5039893;28;20036;-72
2022/06/18 05:11:25;;;;;;;31.33;23.33;;;;;;;20.43;68.29;101630.72;5007170;28;20029;-70
2022/06/18 05:13:50;;;;;;;33.42;22.75;;;;;;;20.46;68.47;101632.13;5038206;28;20528;-72
2022/06/18 05:16:15;;;;;;;39.80;24.08;;;;;;;20.48;68.75;101635.50;5044685;28;20440;-71
2022/06/18 05:18:45;;;;;;;37.50;24.25;;;;;;;20.53;68.75;101641.09;5044349;28;20047;-71
2022/06/18 05:21:10;;;;;;;38.15;24.17;;;;;;;20.53;69.28;101632.72;5045602;28;20025;-70
2022/06/18 05:23:36;;;;;;;31.05;22.90;;;;;;;20.60;67.94;101644.44;5026788;28;20040;-71
2022/06/18 05:26:02;;;;;;;36.70;24.55;;;;;;;20.62;69.11;101644.16;5031158;28;20029;-71
2022/06/18 05:28:28;;;;;;;33.50;23.65;;;;;;;20.64;69.15;101650.31;5045582;28;20436;-71
2022/06/18 05:30:53;;;;;;;35.63;24.40;;;;;;;20.71;67.73;101640.53;5026837;28;20022;-72
2022/06/18 05:33:19;;;;;;;35.90;24.95;;;;;;;20.76;68.94;101650.03;5036872;28;20070;-70
2022/06/18 05:35:45;;;;;;;34.25;24.35;;;;;;;20.81;67.45;101650.84;5045281;28;20029;-71
2022/06/18 05:38:16;;;;;;;36.72;25.45;;;;;;;20.87;67.45;101648.91;5045182;28;20025;-71
2022/06/18 05:40:42;;;;;;;37.33;25.45;;;;;;;20.90;69.18;101656.72;5028300;28;20053;-70
2022/06/18 05:43:07;;;;;;;33.95;25.88;;;;;;;20.94;67.23;101650.31;5024976;28;20111;-71
2022/06/18 05:45:32;;;;;;;33.88;25.02;;;;;;;21.03;68.69;101658.94;5024363;28;20039;-71
2022/06/18 05:47:58;;;;;;;33.33;24.00;;;;;;;21.10;67.89;101661.47;5024682;28;20029;-71
2022/06/18 05:50:23;;;;;;;31.77;23.02;;;;;;;21.16;67.62;101658.34;5025539;28;20033;-70
2022/06/18 05:52:49;;;;;;;29.98;22.17;;;;;;;21.23;66.57;101658.06;5026156;28;20054;-71
2022/06/18 05:55:15;;;;;;;30.55;21.88;;;;;;;21.24;67.34;101663.38;5025353;28;20022;-71
2022/06/18 05:57:47;;;;;;;30.50;21.70;;;;;;;21.32;66.03;101649.97;5027194;28;20338;-71
2022/06/18 06:00:14;;;;;;;31.95;20.63;;;;;;;21.33;65.52;101651.66;5021928;28;20538;-71
2022/06/18 06:02:40;;;;;;;28.52;19.25;;;;;;;21.38;65.79;101646.03;5022507;28;20036;-73
2022/06/18 06:05:05;;;;;;;34.22;20.15;;;;;;;21.43;64.54;101646.84;5040622;28;20034;-71
2022/06/18 06:07:30;;;;;;;29.38;19.90;;;;;;;21.48;64.05;101632.03;5045338;28;20025;-71
2022/06/18 06:12:40;;;;;;;23.10;18.15;;;;;;;21.68;64.54;101634.75;5034829;28;20044;-71
2022/06/18 06:15:06;;;;;;;26.67;18.60;;;;;;;21.72;63.49;101637.81;5039150;28;20033;-72
2022/06/18 06:17:32;;;;;;;28.40;18.05;;;;;;;21.75;63.25;101631.66;5036934;28;20033;-71
2022/06/18 06:20:07;;;;;;;24.20;16.88;;;;;;;21.75;63.81;101632.50;5044739;28;20123;-72
2022/06/18 06:22:34;;;;;;;22.40;17.42;;;;;;;21.82;63.91;101636.94;5034420;28;20056;-71
2022/06/18 06:24:59;;;;;;;22.77;16.92;;;;;;;21.87;64.67;101626.56;5021285;28;20057;-72
2022/06/18 06:27:24;;;;;;;24.38;16.88;;;;;;;21.88;63.99;101635.78;5022519;28;20064;-71
2022/06/18 06:29:50;;;;;;;29.05;18.00;;;;;;;21.92;64.08;101628.50;5008680;28;21083;-70
2022/06/18 06:32:15;;;;;;;25.75;16.95;;;;;;;21.96;64.06;101632.41;5013676;28;20037;-71
2022/06/18 06:34:40;;;;;;;26.38;16.13;;;;;;;21.98;63.34;101632.94;5028579;28;20262;-71
2022/06/18 06:37:05;;;;;;;24.30;15.55;;;;;;;22.06;63.33;101631.50;5028731;28;20094;-71
2022/06/18 06:39:31;;;;;;;25.17;15.02;;;;;;;22.13;63.69;101632.88;5028914;28;20389;-72
2022/06/18 06:41:56;;;;;;;22.30;15.30;;;;;;;22.19;63.42;101628.91;5027325;28;20029;-71
2022/06/18 06:44:21;;;;;;;23.58;15.50;;;;;;;22.24;62.92;101634.47;5028146;28;20029;-68
2022/06/18 06:46:47;;;;;;;23.05;16.52;;;;;;;22.28;62.64;101634.72;5026719;28;20124;-71
2022/06/18 06:49:12;;;;;;;23.15;14.73;;;;;;;22.32;61.95;101637.81;5028328;28;20021;-71
2022/06/18 06:51:38;;;;;;;23.27;14.07;;;;;;;22.38;63.43;101633.81;5027015;28;20030;-72
2022/06/18 06:54:05;;;;;;;21.25;15.38;;;;;;;22.43;61.73;101637.44;5028230;28;20029;-71
2022/06/18 06:59:14;;;;;;;20.90;14.98;;;;;;;22.57;62.73;101632.00;5028267;28;20094;-72
2022/06/18 07:01:40;;;;;;;22.50;13.90;;;;;;;22.66;61.84;101630.25;5022762;28;20034;-71
2022/06/18 07:04:09;;;;;;;18.25;14.00;;;;;;;22.74;62.80;101637.19;5027910;28;20338;-71
2022/06/18 07:06:35;;;;;;;19.00;13.68;;;;;;;22.87;61.34;101633.72;5027710;28;20425;-71
2022/06/18 07:09:02;;;;;;;20.30;13.88;;;;;;;22.88;61.04;101642.94;5028135;28;20034;-71
2022/06/18 07:11:28;;;;;;;24.35;14.32;;;;;;;22.96;61.00;101639.50;5025752;28;20030;-70
2022/06/18 07:13:53;;;;;;;18.65;13.68;;;;;;;22.99;61.95;101639.78;5007697;28;20338;-70
2022/06/18 07:16:18;;;;;;;23.98;14.85;;;;;;;23.05;60.04;101640.56;5023156;28;20065;-71
2022/06/18 07:18:44;;;;;;;19.88;13.38;;;;;;;23.16;59.81;101639.31;5023025;28;20060;-71
2022/06/18 07:21:15;;;;;;;20.55;13.98;;;;;;;23.24;60.25;101651.84;5027701;28;20021;-71
2022/06/18 07:23:41;;;;;;;19.92;13.75;;;;;;;23.26;59.53;101642.00;5028073;28;20424;-72
2022/06/18 07:26:07;;;;;;;19.27;14.02;;;;;;;23.33;59.40;101652.88;5027674;28;20123;-71
2022/06/18 07:28:32;;;;;;;20.45;13.68;;;;;;;23.43;60.66;101640.72;5027025;28;20033;-71
2022/06/18 07:30:58;;;;;;;20.15;12.57;;;;;;;23.55;61.21;101641.97;5026566;28;20175;-71
2022/06/18 07:33:27;;;;;;;21.90;13.60;;;;;;;23.67;59.29;101635.97;5041829;28;20026;-72
2022/06/18 07:35:53;;;;;;;19.42;13.05;;;;;;;23.77;59.69;101647.06;5022415;28;20021;-71
2022/06/18 07:38:19;;;;;;;22.75;13.90;;;;;;;23.82;59.85;101634.91;5027674;28;20018;-71
2022/06/18 07:40:51;;;;;;;20.33;13.70;;;;;;;23.87;60.16;101640.47;5012494;28;20026;-70
2022/06/18 07:43:28;;;;;;;20.52;13.43;;;;;;;23.95;58.99;101638.97;5007982;28;20037;-71
2022/06/18 07:45:53;;;;;;;20.88;13.23;;;;;;;24.04;58.60;101637.16;5006805;28;20026;-71
2022/06/18 07:48:19;;;;;;;21.60;12.10;;;;;;;24.12;58.67;101628.03;5019791;28;20029;-71
2022/06/18 07:50:46;;;;;;;20.55;12.70;;;;;;;24.20;57.63;101632.16;5027501;28;20041;-71
2022/06/18 07:53:15;;;;;;;20.98;12.18;;;;;;;24.30;57.21;101627.22;5026813;28;20036;-71
2022/06/18 07:55:41;;;;;;;21.40;12.82;;;;;;;24.37;56.48;101632.47;5027568;28;20465;-71
2022/06/18 07:58:06;;;;;;;23.73;13.48;;;;;;;24.38;56.25;101625.75;5016004;28;20030;-70
2022/06/18 08:00:31;;;;;;;20.35;12.45;;;;;;;24.51;55.89;101624.94;5017787;28;20370;-71
2022/06/18 08:02:56;;;;;;;20.48;12.80;;;;;;;24.62;56.65;101620.00;5025714;28;20037;-72
2022/06/18 08:05:25;;;;;;;17.25;12.07;;;;;;;24.72;58.06;101613.38;5027272;28;20049;-73
2022/06/18 08:07:50;;;;;;;18.10;12.32;;;;;;;24.82;56.01;101611.22;5027100;28;20079;-72
2022/06/18 08:10:16;;;;;;;19.83;13.48;;;;;;;24.90;55.63;101614.47;5026355;28;20021;-72
2022/06/18 08:12:42;;;;;;;20.20;13.23;;;;;;;24.93;55.98;101602.59;5026006;28;20532;-72
2022/06/18 08:15:09;;;;;;;20.45;11.85;;;;;;;25.11;55.70;101615.78;5022547;28;20076;-73
2022/06/18 08:17:36;;;;;;;18.80;11.33;;;;;;;25.17;57.16;101608.06;5025776;28;20030;-73
2022/06/18 08:20:05;;;;;;;16.30;11.75;;;;;;;25.20;55.85;101599.88;5025715;28;20029;-72
2022/06/18 08:22:31;;;;;;;19.30;11.57;;;;;;;25.30;55.90;101599.66;5011694;28;20394;-72
2022/06/18 08:24:57;;;;;;;18.55;10.95;;;;;;;25.46;55.68;101596.53;5006761;28;20095;-72
2022/06/18 08:27:23;;;;;;;17.63;12.13;;;;;;;25.55;55.70;101589.88;5007933;28;20504;-72
2022/06/18 08:29:49;;;;;;;21.73;11.70;;;;;;;25.58;55.47;101603.28;5026578;28;20037;-72
2022/06/18 08:32:14;;;;;;;18.20;11.35;;;;;;;25.60;54.29;101589.75;5024871;28;20405;-73
2022/06/18 08:34:40;;;;;;;18.83;10.73;;;;;;;25.76;56.31;101593.09;5025569;28;20021;-72
2022/06/18 08:37:07;;;;;;;25.05;11.98;;;;;;;25.83;54.05;101598.28;5026273;28;20036;-72
2022/06/18 08:39:33;;;;;;;22.23;10.68;;;;;;;25.91;52.67;101599.53;5025441;28;20381;-72
2022/06/18 08:42:15;;;;;;;24.02;11.38;;;;;;;26.01;53.47;101602.13;5041591;28;20025;-72
2022/06/18 08:45:01;;;;;;;19.58;11.68;;;;;;;26.14;53.53;101598.41;5025245;28;20025;-72
2022/06/18 08:48:06;;;;;;;21.88;11.95;;;;;;;26.17;52.93;101599.78;5025886;28;20026;-72
2022/06/18 08:50:56;;;;;;;19.52;10.35;;;;;;;26.41;54.51;101600.31;4974249;28;20379;-73
2022/06/18 08:53:51;;;;;;;17.35;9.80;;;;;;;26.47;54.64;101603.84;5006098;28;20018;-72
2022/06/18 08:56:35;;;;;;;21.92;12.23;;;;;;;26.45;53.69;101604.16;5007595;28;20427;-72
2022/06/18 08:59:28;;;;;;;24.02;10.80;;;;;;;26.74;54.85;101603.69;5006076;28;20041;-73
2022/06/18 09:02:03;;;;;;;19.67;11.85;;;;;;;26.77;53.75;101607.88;5005358;28;20398;-74
2022/06/18 09:04:40;;;;;;;24.38;12.80;;;;;;;26.74;52.20;101600.88;5006926;28;20034;-72
2022/06/18 09:07:44;;;;;;;23.45;11.52;;;;;;;26.95;53.28;101606.81;5005455;28;20050;-72
2022/06/18 09:10:26;;;;;;;22.23;12.05;;;;;;;27.05;52.01;101612.16;4958741;28;20447;-72
2022/06/18 09:13:09;;;;;;;22.88;11.60;;;;;;;27.36;52.71;101615.00;5020003;28;20064;-71
2022/06/18 09:15:39;;;;;;;19.52;10.45;;;;;;;27.37;52.57;101616.69;5024807;28;20053;-71
2022/06/18 09:18:19;;;;;;;19.48;10.30;;;;;;;27.56;53.92;101622.03;5025031;28;20056;-71
2022/06/18 09:20:52;;;;;;;21.33;10.60;;;;;;;27.72;52.06;101619.63;5005939;28;20041;-70
2022/06/18 09:23:30;;;;;;;24.58;10.43;;;;;;;28.09;52.78;101611.72;5006348;28;20060;-70
2022/06/18 09:26:00;;;;;;;23.15;10.50;;;;;;;28.20;50.45;101613.06;5004108;28;20537;-70
2022/06/18 09:28:27;;;;;;;18.00;9.55;;;;;;;28.48;48.00;101604.25;5005736;28;20129;-70
2022/06/18 09:30:58;;;;;;;35.78;10.65;;;;;;;28.72;48.48;101612.22;5010920;28;20456;-71
2022/06/18 09:33:49;;;;;;;20.30;9.57;;;;;;;29.13;51.00;101601.16;5024764;28;20025;-71
2022/06/18 09:36:39;;;;;;;19.10;9.50;;;;;;;29.34;49.04;101597.56;5024334;28;20080;-70
2022/06/18 09:39:18;;;;;;;21.10;10.30;;;;;;;29.61;46.72;101599.97;5025198;28;20124;-70
2022/06/18 09:42:03;;;;;;;16.10;9.25;;;;;;;30.66;45.19;101591.47;5025061;28;20037;-70
2022/06/18 09:44:49;;;;;;;19.38;9.15;;;;;;;32.07;42.72;101593.84;5023227;28;20040;-71
2022/06/18 09:47:22;;;;;;;17.13;8.57;;;;;;;33.62;38.00;101591.25;5023993;28;20030;-71
2022/06/18 09:49:47;;;;;;;18.35;8.57;;;;;;;34.55;35.79;101582.75;5024151;28;20222;-70
2022/06/18 09:52:24;;;;;;;18.83;8.88;;;;;;;34.83;34.34;101582.47;5023558;28;20030;-70
2022/06/18 09:55:00;;;;;;;17.60;8.68;;;;;;;35.46;33.50;101586.88;5025052;28;20547;-70
2022/06/18 09:57:31;;;;;;;20.27;9.48;;;;;;;35.14;31.88;101583.47;5025135;28;20037;-70
2022/06/18 10:00:11;;;;;;;17.25;8.15;;;;;;;35.41;33.83;101585.16;5023686;28;20117;-70
2022/06/18 10:02:42;;;;;;;17.60;8.50;;;;;;;35.48;31.45;101584.47;5022206;28;20556;-70
2022/06/18 10:08:28;;;;;;;15.85;8.07;;;;;;;36.36;33.80;101572.66;4962847;28;20057;-70
2022/06/18 10:11:07;;;;;;;16.38;8.00;;;;;;;36.72;33.25;101567.38;4963232;28;20030;-69
2022/06/18 10:13:39;;;;;;;16.98;8.45;;;;;;;37.40;28.96;101565.97;4986160;28;20394;-70
2022/06/18 10:16:16;;;;;;;17.05;8.43;;;;;;;37.66;32.01;101576.41;5018982;28;20048;-69
2022/06/18 10:19:09;;;;;;;17.47;8.47;;;;;;;38.05;30.25;101573.78;5004593;28;20775;-70
2022/06/18 10:21:57;;;;;;;19.83;8.55;;;;;;;38.25;29.52;101573.47;5005464;28;20091;-70
2022/06/18 10:24:36;;;;;;;19.70;10.20;;;;;;;37.68;29.90;101579.72;5004931;28;20389;-69
2022/06/18 10:27:10;;;;;;;14.63;8.75;;;;;;;37.79;29.67;101574.84;5011610;28;20060;-69
2022/06/18 10:29:52;;;;;;;14.85;9.27;;;;;;;38.09;30.58;101571.78;5023579;28;20707;-69
2022/06/18 10:32:30;;;;;;;13.57;7.55;;;;;;;38.41;30.90;101568.22;5024832;28;20137;-69
2022/06/18 10:35:21;;;;;;;18.65;8.13;;;;;;;37.84;29.12;101554.44;5024278;28;20025;-68
2022/06/18 10:38:06;;;;;;;19.27;9.73;;;;;;;36.57;31.04;101563.53;5022001;28;20072;-68
2022/06/18 10:40:49;;;;;;;18.05;9.02;;;;;;;35.80;32.43;101557.19;5024002;28;20051;-69
2022/06/18 10:43:34;;;;;;;17.13;8.65;;;;;;;34.53;33.88;101556.63;5024362;28;20080;-70
2022/06/18 10:46:10;;;;;;;18.52;9.57;;;;;;;33.70;36.66;101553.97;5023955;28;20036;-69
2022/06/18 10:48:36;;;;;;;21.92;8.85;;;;;;;33.40;36.36;101541.44;5023671;28;20030;-69
2022/06/18 10:51:02;;;;;;;17.77;8.63;;;;;;;33.22;37.66;101547.53;5023431;28;20072;-68
2022/06/18 10:53:34;;;;;;;16.92;8.18;;;;;;;32.86;38.01;101545.75;5022625;28;20033;-68
2022/06/18 10:56:03;;;;;;;16.80;9.70;;;;;;;32.41;37.58;101538.44;5023941;28;20029;-68
2022/06/18 10:58:29;;;;;;;19.85;9.50;;;;;;;32.18;41.83;101540.16;5024599;28;20033;-69
2022/06/18 11:00:59;;;;;;;16.23;9.00;;;;;;;32.18;39.77;101535.28;5023553;28;20465;-68
2022/06/18 11:03:28;;;;;;;14.52;9.05;;;;;;;32.13;37.80;101543.25;5016683;28;20033;-69
2022/06/18 11:05:54;;;;;;;16.05;8.60;;;;;;;32.01;40.62;101530.75;5005314;28;20046;-68
2022/06/18 11:08:26;;;;;;;16.48;9.18;;;;;;;32.19;38.95;101536.13;5005887;28;20513;-69
2022/06/18 11:10:56;;;;;;;17.90;10.13;;;;;;;32.20;38.82;101532.94;5020521;28;20112;-68
2022/06/18 11:13:25;;;;;;;19.67;10.07;;;;;;;32.10;39.33;101526.94;5021598;28;20034;-68
2022/06/18 11:16:15;;;;;;;19.15;9.68;;;;;;;32.12;39.02;101530.25;5027739;28;20034;-69
2022/06/18 11:18:49;;;;;;;18.58;8.70;;;;;;;32.01;40.13;101521.41;5045608;28;20194;-69
2022/06/18 11:21:30;;;;;;;20.50;9.73;;;;;;;32.14;38.84;101516.47;5040308;28;20025;-69
2022/06/18 11:24:18;;;;;;;17.60;9.13;;;;;;;32.11;38.52;101505.84;5028091;28;20392;-69
2022/06/18 11:26:56;;;;;;;16.77;8.35;;;;;;;32.22;39.44;101495.63;5028320;28;20080;-69
2022/06/18 11:29:37;;;;;;;19.17;9.38;;;;;;;32.23;37.80;101492.41;5026394;28;20753;-68
2022/06/18 11:32:14;;;;;;;17.33;8.65;;;;;;;32.32;38.23;101483.72;5025750;28;20033;-68
2022/06/18 11:34:44;;;;;;;18.25;8.80;;;;;;;32.15;36.56;101481.22;5028161;28;20049;-69
2022/06/18 11:37:20;;;;;;;19.15;9.27;;;;;;;32.27;38.06;101483.97;5024776;28;20045;-69
2022/06/18 11:39:55;;;;;;;18.23;8.93;;;;;;;32.28;39.60;101485.63;5031309;28;20033;-69
2022/06/18 11:42:44;;;;;;;21.88;8.80;;;;;;;32.61;37.71;101476.00;5019590;28;20052;-69
2022/06/18 11:45:27;;;;;;;16.52;9.57;;;;;;;32.69;38.64;101463.59;5023685;28;20505;-69